page 7298 of 1004498 registered users

eBook PostsUsers

  1. 0makeup36bakery registered @ 2013-05-11 02:10:38, last login @ 2013-05-11 02:51:55
  2. 0internetbusiness registered @ 2013-05-11 02:10:43, last login @ 2013-05-11 02:10:43
  3. 0rugby0farm registered @ 2013-05-11 02:11:10, last login @ 2013-05-11 02:11:10
  4. 0dahliatrout9 registered @ 2013-05-11 02:11:14, last login @ 2013-05-11 02:35:56
  5. 0breadtruck41 registered @ 2013-05-11 02:11:32, last login @ 2013-05-11 02:11:32
  6. 0rolloff822 registered @ 2013-05-11 02:13:34, last login @ 2013-05-11 02:13:34
  7. 0butanechess0 registered @ 2013-05-11 02:14:17, last login @ 2013-05-11 02:14:17
  8. 0rotate0organ registered @ 2013-05-11 02:15:10, last login @ 2013-05-11 02:23:23
  9. 0quiet75tip registered @ 2013-05-11 02:15:13, last login @ 2013-05-11 02:15:13
  10. 0repairchive3 registered @ 2013-05-11 02:15:32, last login @ 2013-05-11 02:15:32
  11. 0curler84jaguar registered @ 2013-05-11 02:17:42, last login @ 2013-05-11 02:17:42
  12. 0taxijelly58 registered @ 2013-05-11 02:18:17, last login @ 2013-05-11 02:18:17
  13. 0breakdahlia55 registered @ 2013-05-11 02:18:28, last login @ 2013-05-11 02:18:28
  14. 0creamskill1 registered @ 2013-05-11 02:19:36, last login @ 2013-05-11 02:19:36
  15. 0front95parrot registered @ 2013-05-11 02:20:18, last login @ 2013-05-11 02:20:18
  16. 0mind70lock registered @ 2013-05-11 02:22:39, last login @ 2013-05-11 02:22:39
  17. 0value02brandy registered @ 2013-05-11 02:24:14, last login @ 2013-05-11 02:24:14
  18. 0leonardo1986 registered @ 2013-05-11 02:24:22, last login @ 2013-05-11 02:24:22
  19. 0line97fur registered @ 2013-05-11 02:25:16, last login @ 2013-05-11 02:25:16
  20. 0doll95bowl registered @ 2013-05-11 02:25:19, last login @ 2013-05-11 02:25:19
  21. 0lisasoup1 registered @ 2013-05-11 02:25:29, last login @ 2013-05-11 02:25:29
  22. 0form3stream registered @ 2013-05-11 02:25:36, last login @ 2013-05-11 02:25:36
  23. 0polish3chest registered @ 2013-05-11 02:25:43, last login @ 2013-05-11 02:25:43
  24. 0lycra5can registered @ 2013-05-11 02:25:59, last login @ 2013-05-11 02:25:59
  25. 0smash3pimple registered @ 2013-05-11 02:26:22, last login @ 2013-05-11 02:26:22
  26. 0satin27tile registered @ 2013-05-11 02:29:25, last login @ 2013-05-11 02:29:25
  27. 0circlerose0 registered @ 2013-05-11 02:29:45, last login @ 2013-05-11 02:29:45
  28. 0PraisubKninna registered @ 2013-05-11 02:30:51, last login @ 2013-05-11 02:30:51
  29. 0whaletemper6 registered @ 2013-05-11 02:33:20, last login @ 2013-05-11 02:56:05
  30. 0flesh49tailor registered @ 2013-05-11 02:33:49, last login @ 2013-05-11 02:33:49
  31. 0ratwall1 registered @ 2013-05-11 02:35:35, last login @ 2013-05-11 02:35:35
  32. 0skate16wasp registered @ 2013-05-11 02:35:46, last login @ 2013-05-11 02:35:46
  33. 0berry98lung registered @ 2013-05-11 02:36:52, last login @ 2013-05-11 02:36:52
  34. 0sockvelvet03 registered @ 2013-05-11 02:37:12, last login @ 2013-05-11 02:37:12
  35. 0denijane registered @ 2013-05-11 02:39:31, last login @ 2013-05-11 02:39:31
  36. 0guide0target registered @ 2013-05-11 02:40:20, last login @ 2013-05-11 02:40:20
  37. 0emilian718172 registered @ 2013-05-11 02:41:19, last login @ 2013-05-11 02:41:19
  38. 0eventnoise12 registered @ 2013-05-11 02:44:23, last login @ 2013-05-11 02:44:23
  39. 0recess60pantry registered @ 2013-05-11 02:45:38, last login @ 2013-05-11 02:45:38
  40. 0lizardbanjo0 registered @ 2013-05-11 02:45:57, last login @ 2013-05-11 02:45:57
  41. 0lisa53lizard registered @ 2013-05-11 02:46:12, last login @ 2013-05-11 02:46:12
  42. 0boardtable1 registered @ 2013-05-11 02:46:13, last login @ 2013-05-11 02:46:13
  43. 0cicada70nurse registered @ 2013-05-11 02:46:36, last login @ 2013-05-11 02:46:36
  44. 0daniel9lumber registered @ 2013-05-11 02:48:04, last login @ 2013-05-11 02:48:04
  45. 0throne51sprout registered @ 2013-05-11 02:48:27, last login @ 2013-05-11 02:48:27
  46. 0nut33mole registered @ 2013-05-11 02:49:48, last login @ 2013-05-11 02:49:48
  47. 0bowl7kenya registered @ 2013-05-11 02:50:19, last login @ 2013-05-11 02:50:19
  48. 0bakerylunge92 registered @ 2013-05-11 02:50:20, last login @ 2013-05-11 02:50:20
  49. 0plainaction5 registered @ 2013-05-11 02:50:51, last login @ 2013-05-11 02:50:51
  50. 0guiltygong52 registered @ 2013-05-11 02:50:57, last login @ 2013-05-11 02:50:57
  51. 0anime76cheek registered @ 2013-05-11 02:51:20, last login @ 2013-05-11 02:51:20
  52. 0frown7hope registered @ 2013-05-11 02:51:50, last login @ 2013-05-11 02:51:50
  53. 0work8winter registered @ 2013-05-11 02:51:59, last login @ 2013-05-11 02:51:59
  54. 0grass9saw registered @ 2013-05-11 02:52:42, last login @ 2013-05-11 02:52:42
  55. 0forest90kiss registered @ 2013-05-11 02:53:02, last login @ 2013-05-11 02:53:02
  56. 0oswalda45980 registered @ 2013-05-11 02:53:14, last login @ 2013-05-11 02:53:14
  57. 0backflight00 registered @ 2013-05-11 02:55:20, last login @ 2013-05-11 02:55:20
  58. 0pail7ring registered @ 2013-05-11 02:56:29, last login @ 2013-05-11 02:56:29
  59. 0move86crate registered @ 2013-05-11 02:56:56, last login @ 2013-05-11 02:56:56
  60. 0davidnurse9 registered @ 2013-05-11 02:56:56, last login @ 2013-05-11 02:56:56
  61. 0nosepest71 registered @ 2013-05-11 02:57:10, last login @ 2013-05-11 02:57:10
  62. 0actgrain1 registered @ 2013-05-11 02:57:17, last login @ 2013-05-11 02:57:17
  63. 0amount60editor registered @ 2013-05-11 02:57:25, last login @ 2013-05-11 02:57:25
  64. 0waste6kenya registered @ 2013-05-11 02:57:49, last login @ 2013-05-11 02:57:49
  65. 0shovel46mask registered @ 2013-05-11 02:57:56, last login @ 2013-05-11 02:57:56
  66. 0island66lily registered @ 2013-05-11 03:00:19, last login @ 2013-05-11 03:00:19
  67. 0randomfarm15 registered @ 2013-05-11 03:01:24, last login @ 2013-05-11 03:01:24
  68. 0risebucket7 registered @ 2013-05-11 03:01:52, last login @ 2013-05-11 03:01:52
  69. 0rise08russia registered @ 2013-05-11 03:02:14, last login @ 2013-05-11 03:02:14
  70. 0sheeptalk3 registered @ 2013-05-11 03:03:01, last login @ 2013-05-11 03:03:01
  71. 0event38litter registered @ 2013-05-11 03:03:05, last login @ 2013-05-11 03:03:05
  72. 0cloud40sleet registered @ 2013-05-11 03:03:13, last login @ 2013-05-11 03:03:13
  73. 0swan1pansy registered @ 2013-05-11 03:04:22, last login @ 2013-05-11 03:50:25
  74. 0brazil16paste registered @ 2013-05-11 03:04:56, last login @ 2013-05-11 03:04:56
  75. 0voyageengine00 registered @ 2013-05-11 03:05:28, last login @ 2013-05-11 03:05:28
  76. 0pear4leaf registered @ 2013-05-11 03:05:30, last login @ 2013-05-11 03:05:30
  77. 0degree8sarah registered @ 2013-05-11 03:06:20, last login @ 2013-05-11 03:06:20
  78. 0pandawatch94 registered @ 2013-05-11 03:08:49, last login @ 2013-05-11 03:08:49
  79. 0spade7dragon registered @ 2013-05-11 03:09:20, last login @ 2013-05-11 03:09:20
  80. 0female8maria registered @ 2013-05-11 03:11:19, last login @ 2013-05-11 03:23:25
  81. 0spadewarm06 registered @ 2013-05-11 03:12:05, last login @ 2013-05-11 03:12:05
  82. 0angoraavenue6 registered @ 2013-05-11 03:16:15, last login @ 2013-05-11 03:16:15
  83. 0warslice68 registered @ 2013-05-11 03:19:01, last login @ 2013-05-11 03:19:01
  84. 0menu7cell registered @ 2013-05-11 03:19:08, last login @ 2013-05-11 03:19:08
  85. 0bowlbrandy09 registered @ 2013-05-11 03:22:10, last login @ 2013-05-11 03:22:10
  86. 0EdwardPawlik registered @ 2013-05-11 03:23:36, last login @ 2013-05-11 03:23:36
  87. 0tailcheek1 registered @ 2013-05-11 03:23:39, last login @ 2013-05-11 03:23:39
  88. 0mariaroll47 registered @ 2013-05-11 03:23:40, last login @ 2013-05-11 03:23:40
  89. 0button52marble registered @ 2013-05-11 03:23:48, last login @ 2013-05-11 03:23:48
  90. 0emuzor registered @ 2013-05-11 03:24:03, last login @ 2013-05-11 03:24:03
  91. 0chin0lake registered @ 2013-05-11 03:24:16, last login @ 2013-05-11 03:24:16
  92. 0slipbed80 registered @ 2013-05-11 03:24:44, last login @ 2013-05-11 03:24:44
  93. 0dish86susan registered @ 2013-05-11 03:26:51, last login @ 2013-05-11 03:56:54
  94. 0mole2oyster registered @ 2013-05-11 03:27:12, last login @ 2013-05-11 03:27:12
  95. 0dajfoliwe7 registered @ 2013-05-11 03:28:21, last login @ 2013-05-11 03:28:21
  96. 0cable7risk registered @ 2013-05-11 03:28:55, last login @ 2013-05-11 03:28:55
  97. 0sort77bit registered @ 2013-05-11 03:30:28, last login @ 2013-05-11 03:48:29
  98. 0helmet2taste registered @ 2013-05-11 03:30:29, last login @ 2013-05-11 03:54:30
  99. 0answermelody18 registered @ 2013-05-11 03:30:50, last login @ 2013-05-11 03:59:12
  100. 0toast6watch registered @ 2013-05-11 03:32:10, last login @ 2013-05-11 03:32:10
  101. 0applebank30 registered @ 2013-05-11 03:32:19, last login @ 2013-05-11 03:32:19

More...

[7308] [7307] [7306] [7305] [7304] [7303] [7302] [7301] [7300] [7299] [7298] [7297] [7296] [7295] [7294] [7293] [7292] [7291] [7290] [7289] ...[1]
Back to Top